Time;durP1;ratioP1;P1;durP2;ratioP2;P2;SDS_P1;SDS_P2;PMS_P1;PMS_P2;Temp;Humidity;BMP_temperature;BMP_pressure;BME280_temperature;BME280_humidity;BME280_pressure;Samples;Min_cycle;Max_cycle;Signal;HPM_P1;HPM_P2
2020/12/31 00:00:36;;;;;;;120.97;56.70;;;;;;;2.02;85.28;99242.38;120541;1150;104372;-84
2020/12/31 00:03:07;;;;;;;109.30;56.73;;;;;;;2.01;85.21;99238.96;120586;1150;104420;-83
2020/12/31 00:05:34;;;;;;;110.17;58.30;;;;;;;2.03;84.91;99259.52;120555;1150;104361;-83
2020/12/31 00:08:01;;;;;;;116.13;56.30;;;;;;;2.01;85.65;99259.53;120550;1151;104327;-83
2020/12/31 00:10:30;;;;;;;109.40;56.60;;;;;;;1.99;85.26;99257.86;120582;1151;104399;-83
2020/12/31 00:12:58;;;;;;;108.07;54.93;;;;;;;1.96;85.20;99263.02;120586;1150;104389;-83
2020/12/31 00:15:25;;;;;;;104.40;55.13;;;;;;;1.94;84.90;99262.19;120533;1151;104460;-83
2020/12/31 00:17:52;;;;;;;112.57;58.13;;;;;;;1.91;85.36;99270.80;120693;1150;104417;-83
2020/12/31 00:20:20;;;;;;;102.20;56.40;;;;;;;1.91;85.39;99269.95;120581;1151;104495;-83
2020/12/31 00:22:47;;;;;;;132.60;59.27;;;;;;;1.90;85.31;99281.11;120587;1151;104428;-83
2020/12/31 00:25:14;;;;;;;98.00;49.20;;;;;;;1.84;84.85;99276.05;120544;1150;104406;-83
2020/12/31 00:27:41;;;;;;;102.50;52.15;;;;;;;1.70;84.32;99276.20;120490;1151;104408;-83
2020/12/31 00:30:16;;;;;;;107.33;55.67;;;;;;;1.65;85.27;99277.99;120620;1151;101919;-83
2020/12/31 00:32:45;;;;;;;109.43;55.17;;;;;;;1.65;85.37;99283.98;120552;1151;104414;-83
2020/12/31 00:35:18;;;;;;;105.23;54.27;;;;;;;1.66;85.62;99277.13;120589;1150;105658;-83
2020/12/31 00:37:45;;;;;;;101.40;55.80;;;;;;;1.67;85.67;99282.24;120595;1151;104194;-83
2020/12/31 00:40:12;;;;;;;95.30;53.37;;;;;;;1.67;85.48;99282.24;120651;1150;106324;-83
2020/12/31 00:42:39;;;;;;;99.73;55.50;;;;;;;1.67;85.53;99287.38;120657;1150;104419;-83
2020/12/31 00:45:06;;;;;;;96.17;49.30;;;;;;;1.67;85.39;99281.39;120620;1151;104767;-83
2020/12/31 00:47:34;;;;;;;107.97;57.17;;;;;;;1.66;85.13;99284.83;120529;1151;103112;-83
2020/12/31 00:50:01;;;;;;;103.43;56.83;;;;;;;1.67;85.51;99286.53;120592;1151;104493;-83
2020/12/31 00:52:28;;;;;;;110.40;59.27;;;;;;;1.69;86.31;99284.80;120573;1150;104510;-83
2020/12/31 00:54:55;;;;;;;115.03;61.70;;;;;;;1.72;85.65;99285.59;120659;1150;104331;-83
2020/12/31 00:57:22;;;;;;;115.50;60.73;;;;;;;1.74;85.83;99298.43;120461;1150;104456;-83
2020/12/31 00:59:49;;;;;;;96.47;52.60;;;;;;;1.69;84.81;99300.21;120556;1150;104325;-83
2020/12/31 01:02:16;;;;;;;99.83;52.57;;;;;;;1.64;85.24;99302.84;120590;1150;104346;-83
2020/12/31 01:04:43;;;;;;;111.80;56.20;;;;;;;1.62;85.12;99298.59;120533;1151;104482;-83
2020/12/31 01:07:17;;;;;;;95.33;51.30;;;;;;;1.61;85.01;99295.14;120619;1151;104873;-83
2020/12/31 01:09:44;;;;;;;96.00;51.07;;;;;;;1.56;85.03;99293.50;120506;1149;104397;-83
2020/12/31 01:12:11;;;;;;;106.13;53.67;;;;;;;1.51;85.01;99290.98;120585;1150;104314;-83
2020/12/31 01:14:38;;;;;;;103.63;54.23;;;;;;;1.49;85.36;99292.73;120572;1151;104310;-83
2020/12/31 01:17:06;;;;;;;106.67;54.17;;;;;;;1.50;85.66;99292.71;120593;1151;102607;-83
2020/12/31 01:19:33;;;;;;;108.87;56.80;;;;;;;1.51;85.78;99291.84;120569;1150;104399;-83
2020/12/31 01:22:00;;;;;;;115.10;58.43;;;;;;;1.54;85.62;99292.67;120533;1149;104468;-83
2020/12/31 01:24:27;;;;;;;111.00;56.10;;;;;;;1.53;85.30;99291.82;120659;1150;104532;-83
2020/12/31 01:26:54;;;;;;;116.10;57.73;;;;;;;1.54;85.57;99290.10;120528;1150;103236;-83
2020/12/31 01:29:21;;;;;;;101.82;53.95;;;;;;;1.56;85.65;99294.35;120501;1151;104397;-83
2020/12/31 01:31:48;;;;;;;104.83;51.83;;;;;;;1.56;85.83;99293.50;120567;1150;104519;-83
2020/12/31 01:34:15;;;;;;;100.03;51.07;;;;;;;1.50;85.70;99289.29;120555;1149;105554;-83
2020/12/31 01:36:42;;;;;;;98.57;45.80;;;;;;;1.44;85.41;99294.50;120551;1149;104416;-83
2020/12/31 01:39:09;;;;;;;94.37;46.73;;;;;;;1.42;85.35;99296.20;120659;1151;104319;-83
2020/12/31 01:41:36;;;;;;;94.70;50.00;;;;;;;1.45;85.76;99291.91;120601;1151;104506;-83
2020/12/31 01:44:09;;;;;;;98.10;49.83;;;;;;;1.50;85.91;99297.00;120531;1149;104323;-83
2020/12/31 01:46:43;;;;;;;94.47;49.00;;;;;;;1.53;86.24;99299.53;120597;1151;104270;-83
2020/12/31 01:49:12;;;;;;;101.87;48.93;;;;;;;1.53;85.38;99304.67;120550;1151;104419;-82
2020/12/31 01:51:43;;;;;;;82.90;43.10;;;;;;;1.53;85.49;99309.81;120535;1149;104351;-83
2020/12/31 01:54:11;;;;;;;83.80;40.73;;;;;;;1.47;85.33;99305.59;120558;1151;104519;-84
2020/12/31 01:56:41;;;;;;;84.17;42.73;;;;;;;1.39;85.14;99306.52;120537;1151;104487;-83
2020/12/31 01:59:12;;;;;;;92.80;40.73;;;;;;;1.33;85.54;99301.45;120682;1150;104301;-82
2020/12/31 02:01:39;;;;;;;79.03;39.37;;;;;;;1.32;85.55;99294.63;120567;1151;104482;-83
2020/12/31 02:04:06;;;;;;;90.45;41.25;;;;;;;1.31;85.79;99295.48;120551;1151;104511;-83
2020/12/31 02:06:34;;;;;;;79.37;39.87;;;;;;;1.32;85.59;99290.33;120614;1151;103249;-83
2020/12/31 02:09:02;;;;;;;76.07;37.58;;;;;;;1.29;85.59;99294.66;120636;1151;104307;-83
2020/12/31 02:11:29;;;;;;;72.78;35.52;;;;;;;1.29;86.03;99295.51;120686;1149;104390;-83
2020/12/31 02:13:56;;;;;;;81.43;34.10;;;;;;;1.25;85.18;99298.09;120680;1151;104346;-82
2020/12/31 02:16:34;;;;;;;80.20;33.40;;;;;;;1.18;85.42;99298.16;120692;1151;104510;-82
2020/12/31 02:19:11;;;;;;;78.97;33.43;;;;;;;1.15;85.23;99298.20;120577;1151;104376;-82
2020/12/31 02:21:49;;;;;;;86.77;34.07;;;;;;;1.12;85.46;99300.80;120554;1151;104274;-82
2020/12/31 02:24:17;;;;;;;64.30;30.27;;;;;;;1.10;85.30;99301.69;120608;1151;105476;-82
2020/12/31 02:26:46;;;;;;;80.53;32.47;;;;;;;1.05;85.46;99296.56;120655;1151;104414;-83
2020/12/31 02:29:15;;;;;;;75.60;33.07;;;;;;;1.00;85.44;99297.48;120587;1150;103363;-82
2020/12/31 02:31:45;;;;;;;73.93;32.67;;;;;;;0.98;85.63;99294.93;120549;1151;104327;-82
2020/12/31 02:34:12;;;;;;;76.70;34.47;;;;;;;0.98;85.81;99301.78;120554;1151;104412;-82
2020/12/31 02:36:39;;;;;;;72.63;34.47;;;;;;;1.04;86.72;99305.14;120649;1151;104523;-82
2020/12/31 02:39:13;;;;;;;73.10;35.30;;;;;;;1.11;86.28;99301.67;120652;1150;103008;-82
2020/12/31 02:41:41;;;;;;;68.33;33.70;;;;;;;1.16;86.47;99305.03;120505;1150;104421;-82
2020/12/31 02:44:09;;;;;;;78.47;31.60;;;;;;;1.20;86.11;99305.85;120580;1150;104268;-82
2020/12/31 02:46:36;;;;;;;71.33;31.10;;;;;;;1.17;86.09;99304.17;120556;1150;104390;-82
2020/12/31 02:49:04;;;;;;;66.13;33.63;;;;;;;1.21;86.14;99313.54;120616;1150;104323;-82
2020/12/31 02:51:33;;;;;;;88.33;33.77;;;;;;;1.24;86.12;99315.23;120613;1151;104370;-83
2020/12/31 02:54:00;;;;;;;71.87;32.47;;;;;;;1.20;85.53;99313.56;120730;1151;103818;-83
2020/12/31 02:56:27;;;;;;;63.10;27.77;;;;;;;1.14;85.62;99316.20;120611;1151;104400;-83
2020/12/31 02:58:55;;;;;;;66.40;27.20;;;;;;;1.06;85.32;99318.81;120588;1151;104452;-83
2020/12/31 03:01:22;;;;;;;57.37;27.10;;;;;;;0.97;85.14;99324.04;120605;1151;104372;-83
2020/12/31 03:03:50;;;;;;;69.27;29.10;;;;;;;0.98;85.82;99325.73;120574;1151;104364;-83
2020/12/31 03:06:18;;;;;;;58.53;27.30;;;;;;;0.96;85.70;99324.91;120663;1150;104422;-83
2020/12/31 03:08:46;;;;;;;61.13;28.77;;;;;;;0.94;85.92;99329.20;120599;1151;104501;-83
2020/12/31 03:11:19;;;;;;;70.27;29.50;;;;;;;0.92;85.87;99322.38;120691;1150;104348;-83
2020/12/31 03:13:47;;;;;;;65.07;29.60;;;;;;;0.95;85.98;99335.19;120709;1150;104412;-84
2020/12/31 03:16:16;;;;;;;65.17;31.13;;;;;;;0.99;86.14;99329.16;120785;1149;104423;-83
2020/12/31 03:18:43;;;;;;;66.13;29.77;;;;;;;1.02;86.44;99324.84;120574;1151;104403;-83
2020/12/31 03:21:10;;;;;;;62.67;29.67;;;;;;;1.06;86.39;99329.08;120558;1151;104482;-83
2020/12/31 03:23:38;;;;;;;74.85;29.55;;;;;;;1.05;86.09;99337.65;120573;1150;104468;-82
2020/12/31 03:26:06;;;;;;;60.53;24.20;;;;;;;1.03;85.73;99335.97;120605;1150;104385;-82
2020/12/31 03:28:33;;;;;;;82.57;28.37;;;;;;;0.95;85.70;99338.61;120568;1151;102105;-83
2020/12/31 03:31:00;;;;;;;60.23;25.48;;;;;;;0.88;85.77;99342.06;120603;1149;104326;-83
2020/12/31 03:33:28;;;;;;;61.73;26.03;;;;;;;0.82;85.73;99336.98;120544;1151;104537;-83
2020/12/31 03:35:55;;;;;;;73.00;30.23;;;;;;;0.82;86.19;99331.86;120613;1151;104411;-83
2020/12/31 03:38:22;;;;;;;69.77;29.67;;;;;;;0.86;86.48;99333.53;120549;1150;104425;-83
2020/12/31 03:40:49;;;;;;;65.90;30.43;;;;;;;0.89;86.59;99336.91;120553;1151;104476;-83
2020/12/31 03:43:16;;;;;;;67.33;29.03;;;;;;;0.92;86.67;99335.22;120560;1150;104397;-84
2020/12/31 03:45:44;;;;;;;72.03;28.70;;;;;;;0.96;86.50;99342.88;120732;1150;104436;-84
2020/12/31 03:48:11;;;;;;;86.83;30.00;;;;;;;0.98;86.57;99342.86;120680;1151;104345;-84
2020/12/31 03:50:39;;;;;;;58.70;28.13;;;;;;;0.99;86.41;99347.98;120593;1150;104580;-83
2020/12/31 03:53:07;;;;;;;65.20;28.03;;;;;;;1.03;86.66;99348.80;120580;1150;104512;-83
2020/12/31 03:55:34;;;;;;;60.80;27.23;;;;;;;1.03;86.62;99349.66;120549;1151;104322;-83
2020/12/31 03:58:02;;;;;;;64.27;27.33;;;;;;;1.03;86.35;99343.67;120576;1151;104395;-83
2020/12/31 04:00:29;;;;;;;66.53;28.07;;;;;;;1.04;86.54;99342.80;120584;1151;104401;-83
2020/12/31 04:02:56;;;;;;;60.70;29.80;;;;;;;1.07;86.50;99345.34;120682;1151;103169;-83
2020/12/31 04:05:23;;;;;;;63.87;29.33;;;;;;;1.09;86.28;99347.06;120586;1150;104322;-83
2020/12/31 04:07:50;;;;;;;65.20;29.45;;;;;;;1.11;86.17;99354.75;120560;1150;104342;-83
2020/12/31 04:10:17;;;;;;;59.63;26.80;;;;;;;1.14;86.21;99357.28;120640;1151;104353;-83
2020/12/31 04:12:45;;;;;;;67.73;26.17;;;;;;;1.14;86.27;99363.27;120573;1151;104374;-83
2020/12/31 04:15:12;;;;;;;68.60;26.50;;;;;;;1.10;85.91;99353.89;120543;1151;104418;-83
2020/12/31 04:17:39;;;;;;;73.30;26.60;;;;;;;1.07;85.88;99355.61;120555;1150;104351;-84
2020/12/31 04:20:06;;;;;;;64.80;27.23;;;;;;;1.05;85.89;99355.63;120634;1150;102587;-84
2020/12/31 04:22:33;;;;;;;55.10;26.60;;;;;;;1.01;86.33;99369.36;120665;1150;103083;-84
2020/12/31 04:25:01;;;;;;;58.23;24.97;;;;;;;1.01;86.00;99376.21;120524;1151;104351;-84
2020/12/31 04:27:28;;;;;;;61.27;24.37;;;;;;;0.97;86.37;99380.52;120643;1150;104767;-84
2020/12/31 04:29:55;;;;;;;70.93;28.23;;;;;;;0.94;86.06;99370.28;120535;1151;104440;-84
2020/12/31 04:32:22;;;;;;;65.87;27.83;;;;;;;0.96;86.05;99375.41;120627;1151;103130;-84
2020/12/31 04:34:49;;;;;;;77.93;27.57;;;;;;;0.97;86.09;99371.97;120546;1150;104346;-84
2020/12/31 04:37:16;;;;;;;65.33;27.40;;;;;;;0.94;86.39;99372.84;120650;1151;104460;-84
2020/12/31 04:39:45;;;;;;;108.37;28.93;;;;;;;0.90;86.08;99389.14;120666;1150;104516;-81
2020/12/31 04:42:12;;;;;;;72.27;27.80;;;;;;;0.84;86.08;99402.84;120770;1150;104364;-83
2020/12/31 04:44:40;;;;;;;86.30;26.07;;;;;;;0.78;85.83;99407.19;120679;1150;104348;-82
2020/12/31 04:47:19;;;;;;;64.17;23.33;;;;;;;0.70;85.83;99414.05;120593;1151;104320;-83
2020/12/31 04:49:50;;;;;;;82.67;25.87;;;;;;;0.63;86.18;99415.81;120665;1151;103069;-83
2020/12/31 04:52:18;;;;;;;72.93;25.13;;;;;;;0.56;86.03;99420.14;120518;1151;104214;-83
2020/12/31 04:54:45;;;;;;;85.93;25.23;;;;;;;0.50;86.42;99425.28;120507;1151;104349;-83
2020/12/31 04:57:12;;;;;;;98.87;23.77;;;;;;;0.41;86.53;99425.34;120648;1150;104773;-83
2020/12/31 04:59:39;;;;;;;58.67;22.30;;;;;;;0.32;86.04;99425.36;120555;1150;104301;-83
2020/12/31 05:02:07;;;;;;;62.27;22.03;;;;;;;0.25;86.31;99426.25;120634;1151;104214;-83
2020/12/31 05:04:36;;;;;;;86.17;24.27;;;;;;;0.20;86.69;99426.28;120628;1150;103098;-82
2020/12/31 05:07:03;;;;;;;52.07;20.73;;;;;;;0.18;86.57;99427.11;120704;1150;104353;-82
2020/12/31 05:09:30;;;;;;;48.40;21.77;;;;;;;0.15;86.54;99427.98;120605;1150;103118;-82
2020/12/31 05:11:58;;;;;;;77.17;24.87;;;;;;;0.17;87.31;99435.66;120591;1150;104316;-82
2020/12/31 05:14:33;;;;;;;91.27;23.60;;;;;;;0.15;87.21;99443.37;120606;1151;103719;-82
2020/12/31 05:17:14;;;;;;;101.10;22.60;;;;;;;0.09;87.22;99445.11;120555;1150;104438;-82
2020/12/31 05:19:41;;;;;;;62.60;18.50;;;;;;;0.02;86.99;99451.13;120679;1150;104242;-82
2020/12/31 05:22:17;;;;;;;54.67;20.03;;;;;;;-0.06;86.97;99443.43;120557;1151;104462;-83
2020/12/31 05:24:51;;;;;;;67.60;22.63;;;;;;;-0.11;87.27;99447.72;120625;1151;104355;-82
2020/12/31 05:27:22;;;;;;;67.97;22.03;;;;;;;-0.13;87.58;99447.73;120693;1149;104471;-83
2020/12/31 05:30:02;;;;;;;53.80;19.80;;;;;;;-0.16;87.56;99452.01;120651;1151;104551;-83
2020/12/31 05:32:31;;;;;;;42.53;19.23;;;;;;;-0.18;87.52;99449.45;120665;1150;104387;-83
2020/12/31 05:34:59;;;;;;;61.00;20.70;;;;;;;-0.19;87.43;99451.98;120562;1150;104359;-83
2020/12/31 05:37:28;;;;;;;48.03;20.57;;;;;;;-0.19;87.73;99451.98;120560;1151;104448;-83
2020/12/31 05:40:07;;;;;;;71.73;21.57;;;;;;;-0.20;88.02;99450.28;120647;1150;104417;-83
2020/12/31 05:42:36;;;;;;;35.45;16.95;;;;;;;-0.23;88.11;99448.58;120670;1149;104211;-83
2020/12/31 05:45:09;;;;;;;54.10;21.53;;;;;;;-0.22;88.21;99460.54;120649;1151;104865;-83
2020/12/31 05:47:44;;;;;;;110.57;22.97;;;;;;;-0.21;88.62;99458.83;120583;1151;104351;-83
2020/12/31 05:50:16;;;;;;;70.13;21.50;;;;;;;-0.21;88.36;99459.68;120559;1151;104366;-83
2020/12/31 05:52:44;;;;;;;64.95;20.85;;;;;;;-0.23;88.40;99461.39;120648;1150;104348;-83
2020/12/31 05:55:11;;;;;;;65.87;21.60;;;;;;;-0.24;88.19;99469.09;120557;1153;104381;-83
2020/12/31 05:57:43;;;;;;;95.07;21.37;;;;;;;-0.25;88.18;99467.38;120632;1151;104420;-83
2020/12/31 06:00:16;;;;;;;70.77;22.43;;;;;;;-0.25;88.48;99463.11;120745;1151;102059;-83
2020/12/31 06:02:49;;;;;;;80.13;22.20;;;;;;;-0.26;88.33;99466.53;120678;1150;103092;-83
2020/12/31 06:05:18;;;;;;;120.23;22.47;;;;;;;-0.28;88.76;99468.25;120644;1149;104352;-83
2020/12/31 06:07:53;;;;;;;55.43;21.30;;;;;;;-0.27;88.36;99469.09;120702;1151;104513;-83
2020/12/31 06:10:24;;;;;;;77.25;23.70;;;;;;;-0.27;88.67;99487.89;120547;1151;104331;-83
2020/12/31 06:12:52;;;;;;;67.03;21.87;;;;;;;-0.27;88.67;99485.32;120621;1151;104395;-83
2020/12/31 06:15:23;;;;;;;52.50;18.07;;;;;;;-0.30;88.22;99493.02;120520;1151;104410;-83
2020/12/31 06:17:51;;;;;;;35.07;17.07;;;;;;;-0.34;88.29;99489.61;120541;1151;104396;-83
2020/12/31 06:20:23;;;;;;;38.30;18.37;;;;;;;-0.39;88.26;99483.61;120544;1151;104369;-83
2020/12/31 06:22:58;;;;;;;49.00;18.47;;;;;;;-0.39;88.50;99490.44;120625;1149;104422;-83
2020/12/31 06:25:31;;;;;;;40.07;16.27;;;;;;;-0.41;88.36;99503.25;120636;1151;104461;-83
2020/12/31 06:28:12;;;;;;;42.30;17.23;;;;;;;-0.40;88.11;99501.55;120652;1150;102467;-83
2020/12/31 06:30:41;;;;;;;40.07;18.50;;;;;;;-0.43;87.93;99491.30;120543;1150;104335;-83
2020/12/31 06:33:13;;;;;;;68.70;20.80;;;;;;;-0.40;88.44;99492.16;120540;1151;104334;-83
2020/12/31 06:35:43;;;;;;;59.20;19.47;;;;;;;-0.39;88.66;99486.17;120612;1150;104448;-83
2020/12/31 06:38:10;;;;;;;67.93;19.43;;;;;;;-0.36;88.31;99495.56;120541;1151;104325;-83
2020/12/31 06:40:37;;;;;;;45.60;18.60;;;;;;;-0.34;88.28;99491.31;120570;1151;104355;-83
2020/12/31 06:43:14;;;;;;;36.83;17.50;;;;;;;-0.38;88.49;99487.02;120555;1151;103035;-83
2020/12/31 06:45:46;;;;;;;63.80;20.73;;;;;;;-0.39;87.72;99493.86;120544;1151;104454;-83
2020/12/31 06:48:23;;;;;;;45.87;18.80;;;;;;;-0.38;88.25;99492.15;120600;1150;104317;-83
2020/12/31 06:51:07;;;;;;;48.60;16.95;;;;;;;-0.37;88.10;99498.98;120617;1150;104359;-83
2020/12/31 06:53:34;;;;;;;54.03;20.17;;;;;;;-0.35;88.54;99497.30;120651;1150;104849;-83
2020/12/31 06:56:10;;;;;;;60.15;18.70;;;;;;;-0.34;88.32;99493.88;120657;1151;103224;-83
2020/12/31 06:58:38;;;;;;;61.43;20.40;;;;;;;-0.32;88.73;99489.61;120623;1150;104484;-83
2020/12/31 07:01:26;;;;;;;67.67;20.60;;;;;;;-0.33;88.91;99495.59;120648;1150;104374;-83
2020/12/31 07:03:57;;;;;;;88.83;19.60;;;;;;;-0.36;88.40;99511.81;120495;1150;104194;-83
2020/12/31 07:06:25;;;;;;;63.67;17.73;;;;;;;-0.42;88.32;99506.67;120577;1150;103151;-83
2020/12/31 07:09:26;;;;;;;96.20;19.30;;;;;;;-0.47;88.08;99497.29;120591;1151;104477;-83
2020/12/31 07:11:58;;;;;;;88.40;20.07;;;;;;;-0.52;88.61;99504.98;120561;1150;104228;-83
2020/12/31 07:14:27;;;;;;;74.30;18.87;;;;;;;-0.52;88.64;99499.86;120652;1150;104495;-83
2020/12/31 07:16:54;;;;;;;80.35;20.65;;;;;;;-0.53;88.80;99487.05;120625;1149;104824;-83
2020/12/31 07:19:39;;;;;;;67.77;19.33;;;;;;;-0.57;88.61;99495.56;120780;1150;104321;-83
2020/12/31 07:22:09;;;;;;;62.67;18.50;;;;;;;-0.61;88.48;99495.56;120618;1148;101983;-82
2020/12/31 07:24:52;;;;;;;47.57;19.20;;;;;;;-0.61;88.33;99505.81;120695;1150;104188;-83
2020/12/31 07:27:23;;;;;;;53.60;20.37;;;;;;;-0.62;88.58;99509.23;120734;1151;104463;-83
2020/12/31 07:29:56;;;;;;;44.60;17.97;;;;;;;-0.61;88.25;99508.38;120570;1151;104380;-84
2020/12/31 07:32:47;;;;;;;75.03;21.13;;;;;;;-0.61;88.76;99505.81;120670;1150;104474;-83
2020/12/31 07:35:23;;;;;;;64.70;18.83;;;;;;;-0.63;88.26;99510.08;120518;1149;104490;-83
2020/12/31 07:37:55;;;;;;;39.37;18.47;;;;;;;-0.64;88.08;99505.81;120591;1150;103079;-83
2020/12/31 07:40:44;;;;;;;43.67;16.37;;;;;;;-0.66;87.95;99510.08;120605;1150;104433;-84
2020/12/31 07:43:13;;;;;;;50.13;17.27;;;;;;;-0.65;87.97;99509.23;120563;1151;104346;-83
2020/12/31 07:45:52;;;;;;;34.60;16.60;;;;;;;-0.63;88.00;99512.64;120564;1151;104427;-82
2020/12/31 07:48:20;;;;;;;48.27;18.43;;;;;;;-0.62;88.30;99508.38;120507;1151;103695;-82
2020/12/31 07:50:55;;;;;;;42.30;19.17;;;;;;;-0.56;88.32;99502.39;120600;1151;105149;-82
2020/12/31 07:53:23;;;;;;;41.40;17.20;;;;;;;-0.51;88.31;99508.39;120634;1150;104388;-82
2020/12/31 07:55:52;;;;;;;41.17;16.13;;;;;;;-0.52;88.04;99509.25;120519;1151;104388;-83
2020/12/31 07:58:21;;;;;;;34.03;18.33;;;;;;;-0.50;88.42;99507.54;120669;1150;104315;-83
2020/12/31 08:01:04;;;;;;;33.13;16.93;;;;;;;-0.46;87.82;99504.12;120580;1150;104321;-83
2020/12/31 08:03:31;;;;;;;36.00;17.67;;;;;;;-0.41;88.42;99494.72;120595;1150;104589;-83
2020/12/31 08:06:00;;;;;;;34.53;17.13;;;;;;;-0.36;88.08;99491.32;120561;1150;104350;-83
2020/12/31 08:08:28;;;;;;;36.43;18.13;;;;;;;-0.31;88.44;99493.88;120564;1151;104381;-83
2020/12/31 08:10:57;;;;;;;39.33;17.70;;;;;;;-0.25;88.16;99490.45;120567;1150;104370;-83
2020/12/31 08:13:24;;;;;;;35.25;15.90;;;;;;;-0.21;87.52;99503.25;120545;1151;104467;-83
2020/12/31 08:15:53;;;;;;;40.97;17.90;;;;;;;-0.18;87.95;99500.70;120559;1151;104422;-83
2020/12/31 08:18:23;;;;;;;44.03;18.00;;;;;;;-0.14;87.48;99507.53;120668;1150;104291;-83
2020/12/31 08:20:53;;;;;;;44.05;17.70;;;;;;;-0.10;87.43;99509.23;120663;1150;104412;-83
2020/12/31 08:23:27;;;;;;;36.60;16.97;;;;;;;-0.11;87.28;99507.52;120604;1151;104484;-83
2020/12/31 08:25:56;;;;;;;31.87;16.97;;;;;;;-0.08;87.42;99504.09;120555;1151;103128;-83
2020/12/31 08:28:24;;;;;;;31.05;16.35;;;;;;;-0.08;87.08;99498.97;120583;1150;104324;-83
2020/12/31 08:30:51;;;;;;;37.33;17.63;;;;;;;-0.05;87.40;99506.66;120579;1151;104388;-83
2020/12/31 08:33:24;;;;;;;35.50;16.70;;;;;;;0.03;87.58;99515.20;120612;1151;104432;-83
2020/12/31 08:35:52;;;;;;;40.60;16.23;;;;;;;0.08;87.18;99520.31;120731;1150;104343;-83
2020/12/31 08:38:21;;;;;;;29.27;14.90;;;;;;;0.12;87.39;99519.45;120600;1151;104436;-83
2020/12/31 08:40:51;;;;;;;24.47;13.63;;;;;;;0.12;86.59;99522.02;120666;1150;102951;-83
2020/12/31 08:43:22;;;;;;;27.63;14.00;;;;;;;0.16;86.94;99529.69;120537;1150;104439;-83
2020/12/31 08:45:52;;;;;;;26.80;13.23;;;;;;;0.11;86.36;99525.44;120640;1151;104804;-83
2020/12/31 08:48:25;;;;;;;29.20;13.83;;;;;;;0.05;86.48;99528.02;120601;1150;104372;-83
2020/12/31 08:51:13;;;;;;;31.37;16.20;;;;;;;0.06;86.56;99522.03;120594;1151;104562;-82
2020/12/31 08:53:54;;;;;;;34.37;15.73;;;;;;;0.10;86.60;99531.42;120588;1151;104400;-83
2020/12/31 08:56:26;;;;;;;31.07;16.13;;;;;;;0.11;86.62;99528.85;120630;1150;104305;-83
2020/12/31 08:59:16;;;;;;;28.80;15.13;;;;;;;0.13;86.86;99533.98;120623;1150;104477;-84
2020/12/31 09:01:45;;;;;;;26.40;14.70;;;;;;;0.16;86.82;99541.66;120669;1149;103066;-83
2020/12/31 09:04:19;;;;;;;31.30;16.37;;;;;;;0.23;86.90;99538.25;120782;1150;104409;-84
2020/12/31 09:06:52;;;;;;;29.63;14.93;;;;;;;0.26;86.69;99535.67;120674;1151;104416;-83
2020/12/31 09:09:20;;;;;;;32.27;15.97;;;;;;;0.29;86.48;99535.66;120676;1150;104329;-84
2020/12/31 09:11:55;;;;;;;37.83;17.20;;;;;;;0.29;86.40;99533.95;120685;1151;104439;-84
2020/12/31 09:14:23;;;;;;;37.37;17.67;;;;;;;0.29;86.44;99543.35;120633;1151;104356;-83
2020/12/31 09:16:50;;;;;;;32.50;15.97;;;;;;;0.26;86.24;99540.80;120577;1151;104420;-83
2020/12/31 09:19:18;;;;;;;36.77;15.37;;;;;;;0.21;86.07;99535.69;120571;1151;104325;-83
2020/12/31 09:21:46;;;;;;;33.20;16.63;;;;;;;0.20;86.52;99538.26;120704;1151;104342;-83
2020/12/31 09:24:21;;;;;;;35.73;16.77;;;;;;;0.20;86.54;99535.69;120590;1151;104381;-83
2020/12/31 09:26:51;;;;;;;41.90;17.60;;;;;;;0.23;86.58;99539.09;120613;1150;104419;-82
2020/12/31 09:29:19;;;;;;;37.50;17.27;;;;;;;0.25;86.48;99529.69;120703;1149;104379;-82
2020/12/31 09:31:47;;;;;;;37.53;18.50;;;;;;;0.32;86.57;99542.48;120578;1151;104560;-83
2020/12/31 09:34:15;;;;;;;32.23;18.17;;;;;;;0.35;86.46;99548.45;120575;1151;104307;-83
2020/12/31 09:36:42;;;;;;;55.17;18.13;;;;;;;0.33;86.26;99542.48;120550;1151;104421;-82
2020/12/31 09:39:09;;;;;;;52.03;18.17;;;;;;;0.30;86.19;99539.93;120613;1149;104444;-82
2020/12/31 09:41:38;;;;;;;50.03;18.02;;;;;;;0.27;86.01;99519.42;120642;1151;104429;-82
2020/12/31 09:44:06;;;;;;;35.57;16.80;;;;;;;0.26;86.47;99523.70;120557;1151;104539;-83
2020/12/31 09:46:33;;;;;;;34.97;17.33;;;;;;;0.29;86.38;99527.97;120599;1151;104291;-83
2020/12/31 09:49:00;;;;;;;36.77;18.37;;;;;;;0.34;86.87;99528.80;120569;1151;104378;-83
2020/12/31 09:51:27;;;;;;;36.70;18.73;;;;;;;0.41;86.88;99524.52;120682;1150;104869;-83
2020/12/31 09:53:54;;;;;;;43.83;18.83;;;;;;;0.46;86.79;99525.36;120649;1150;104550;-82
2020/12/31 09:56:29;;;;;;;44.73;20.52;;;;;;;0.45;86.36;99532.20;120501;1151;104358;-83
2020/12/31 09:58:59;;;;;;;40.03;19.70;;;;;;;0.49;86.40;99535.61;120708;1150;104652;-82
2020/12/31 10:01:26;;;;;;;38.83;18.70;;;;;;;0.54;86.67;99534.76;120650;1151;104443;-82
2020/12/31 10:03:53;;;;;;;37.80;19.37;;;;;;;0.60;86.99;99528.73;120673;1150;102799;-82
2020/12/31 10:06:20;;;;;;;46.53;20.07;;;;;;;0.60;86.14;99544.13;120635;1150;104838;-83
2020/12/31 10:08:51;;;;;;;40.77;19.60;;;;;;;0.54;86.05;99537.32;120556;1150;104372;-83
2020/12/31 10:11:20;;;;;;;34.27;17.63;;;;;;;0.52;85.92;99536.44;120668;1150;104476;-83
2020/12/31 10:13:47;;;;;;;43.33;19.17;;;;;;;0.45;85.82;99537.33;120717;1150;104407;-83
2020/12/31 10:16:14;;;;;;;47.63;19.73;;;;;;;0.45;86.42;99528.78;120620;1150;104496;-83
2020/12/31 10:18:41;;;;;;;47.20;21.13;;;;;;;0.45;86.43;99526.22;120710;1150;104409;-83
2020/12/31 10:21:08;;;;;;;48.77;20.60;;;;;;;0.45;85.82;99527.07;120632;1151;104527;-83
2020/12/31 10:23:35;;;;;;;41.30;18.95;;;;;;;0.46;86.36;99533.05;120648;1151;104330;-83
2020/12/31 10:26:02;;;;;;;49.30;19.85;;;;;;;0.45;86.36;99528.78;120641;1149;104373;-82
2020/12/31 10:28:29;;;;;;;42.67;20.30;;;;;;;0.43;86.53;99546.75;120714;1151;104374;-83
2020/12/31 10:30:59;;;;;;;56.47;22.07;;;;;;;0.44;86.73;99534.77;120544;1151;104387;-83
2020/12/31 10:33:26;;;;;;;50.83;22.37;;;;;;;0.45;86.96;99545.03;120667;1150;103269;-83
2020/12/31 10:35:53;;;;;;;56.93;23.83;;;;;;;0.46;86.74;99536.47;120550;1150;104455;-82
2020/12/31 10:38:20;;;;;;;59.13;24.70;;;;;;;0.49;86.92;99540.73;120653;1150;104418;-83
2020/12/31 10:40:47;;;;;;;45.73;22.00;;;;;;;0.50;87.16;99538.16;120468;1150;104506;-83
2020/12/31 10:43:14;;;;;;;50.80;22.00;;;;;;;0.50;87.33;99532.18;120563;1151;102449;-83
2020/12/31 10:45:41;;;;;;;48.00;22.70;;;;;;;0.51;87.10;99528.75;120545;1151;104422;-83
2020/12/31 10:48:12;;;;;;;53.80;21.43;;;;;;;0.53;86.84;99527.03;120653;1151;104418;-83
2020/12/31 10:50:39;;;;;;;44.77;21.27;;;;;;;0.52;86.81;99523.61;120600;1151;104432;-82
2020/12/31 10:53:06;;;;;;;65.27;27.10;;;;;;;0.54;87.12;99523.64;120616;1151;103683;-82
2020/12/31 10:55:33;;;;;;;54.38;24.80;;;;;;;0.54;87.23;99519.36;120582;1151;104453;-83
2020/12/31 10:58:01;;;;;;;66.70;26.15;;;;;;;0.58;87.17;99518.48;120655;1149;104423;-83
2020/12/31 11:00:28;;;;;;;52.03;24.37;;;;;;;0.60;87.32;99524.46;120585;1151;104316;-82
2020/12/31 11:02:55;;;;;;;56.33;24.43;;;;;;;0.64;87.29;99519.31;120601;1150;103741;-82
2020/12/31 11:05:22;;;;;;;62.40;26.47;;;;;;;0.67;87.30;99512.45;120647;1151;104406;-82
2020/12/31 11:07:49;;;;;;;55.37;25.40;;;;;;;0.71;87.31;99510.72;120733;1150;104513;-83
2020/12/31 11:10:17;;;;;;;58.57;25.67;;;;;;;0.71;87.18;99505.59;120772;1150;104474;-84
2020/12/31 11:12:45;;;;;;;58.87;26.50;;;;;;;0.71;87.23;99524.40;120553;1150;104440;-82
2020/12/31 11:15:12;;;;;;;65.43;28.23;;;;;;;0.71;87.15;99520.98;120529;1151;104550;-82
2020/12/31 11:17:39;;;;;;;63.20;28.07;;;;;;;0.70;87.17;99509.02;120608;1151;104294;-83